createdAt,value
2019-02-14T00:01:42.878Z,37.60
2019-02-14T00:04:09.338Z,37.30
2019-02-14T00:06:35.527Z,37.16
2019-02-14T00:09:01.792Z,37.18
2019-02-14T00:11:27.940Z,37.29
2019-02-14T00:13:54.186Z,37.51
2019-02-14T00:16:20.339Z,38.00
2019-02-14T00:18:46.595Z,38.09
2019-02-14T00:21:12.886Z,37.87
2019-02-14T00:23:39.052Z,37.67
2019-02-14T00:26:05.308Z,37.90
2019-02-14T00:28:31.501Z,37.90
2019-02-14T00:30:57.753Z,37.73
2019-02-14T00:33:23.916Z,38.14
2019-02-14T00:35:50.097Z,38.46
2019-02-14T00:38:16.249Z,39.02
2019-02-14T00:40:42.408Z,39.22
2019-02-14T00:43:08.602Z,39.30
2019-02-14T00:45:34.874Z,39.62
2019-02-14T00:48:01.024Z,39.42
2019-02-14T00:50:27.227Z,39.20
2019-02-14T00:52:53.380Z,38.98
2019-02-14T00:55:19.929Z,38.96
2019-02-14T00:57:46.114Z,39.11
2019-02-14T01:00:12.971Z,39.50
2019-02-14T01:02:39.126Z,39.70
2019-02-14T01:08:00.154Z,39.33
2019-02-14T01:10:26.444Z,40.03
2019-02-14T01:12:52.604Z,39.94
2019-02-14T01:15:20.726Z,39.94
2019-02-14T01:17:47.019Z,39.96
2019-02-14T01:20:13.179Z,39.31
2019-02-14T01:22:39.445Z,38.50
2019-02-14T01:25:05.629Z,37.92
2019-02-14T01:30:16.183Z,37.81
2019-02-14T01:35:26.773Z,36.53
2019-02-14T01:40:37.354Z,37.18
2019-02-14T01:43:03.522Z,36.91
2019-02-14T01:45:29.680Z,36.84
2019-02-14T01:47:55.927Z,36.50
2019-02-14T01:50:22.124Z,36.53
2019-02-14T01:52:48.287Z,37.02
2019-02-14T01:55:14.477Z,35.88
2019-02-14T01:57:40.639Z,36.21
2019-02-14T02:00:11.300Z,36.35
2019-02-14T02:02:37.485Z,35.88
2019-02-14T02:05:04.038Z,35.69
2019-02-14T02:07:30.199Z,35.90
2019-02-14T02:09:56.388Z,35.23
2019-02-14T02:12:22.536Z,34.29
2019-02-14T02:14:48.794Z,34.13
2019-02-14T02:17:15.336Z,33.71
2019-02-14T02:19:41.472Z,34.40
2019-02-14T02:22:07.628Z,34.06
2019-02-14T02:24:33.817Z,34.03
2019-02-14T02:26:59.982Z,34.88
2019-02-14T02:29:26.131Z,35.68
2019-02-14T02:31:52.415Z,33.85
2019-02-14T02:34:18.564Z,33.64
2019-02-14T02:36:44.724Z,33.29
2019-02-14T02:39:10.910Z,33.56
2019-02-14T02:41:37.063Z,33.54
2019-02-14T02:44:03.346Z,33.62
2019-02-14T02:46:29.560Z,35.13
2019-02-14T02:48:55.738Z,34.21
2019-02-14T02:51:21.896Z,34.28
2019-02-14T02:53:48.080Z,35.22
2019-02-14T02:56:14.258Z,35.19
2019-02-14T02:58:40.418Z,35.63
2019-02-14T03:01:06.708Z,34.56
2019-02-14T03:03:32.868Z,34.91
2019-02-14T03:05:59.176Z,34.10
2019-02-14T03:08:25.462Z,34.75
2019-02-14T03:10:51.618Z,34.04
2019-02-14T03:13:17.884Z,34.61
2019-02-14T03:15:44.084Z,33.97
2019-02-14T03:18:10.377Z,33.43
2019-02-14T03:20:36.639Z,35.58
2019-02-14T03:23:02.811Z,36.59
2019-02-14T03:25:28.974Z,36.70
2019-02-14T03:27:55.128Z,36.93
2019-02-14T03:30:21.429Z,36.38
2019-02-14T03:32:47.584Z,35.32
2019-02-14T03:35:13.739Z,35.44
2019-02-14T03:37:39.931Z,35.60
2019-02-14T03:40:08.595Z,36.69
2019-02-14T03:42:34.860Z,36.86
2019-02-14T03:45:01.046Z,37.61
2019-02-14T03:47:27.191Z,37.42
2019-02-14T03:49:53.353Z,37.35
2019-02-14T03:52:19.548Z,37.74
2019-02-14T03:54:45.702Z,37.66
2019-02-14T03:57:12.161Z,38.09
2019-02-14T03:59:38.347Z,37.60
2019-02-14T04:02:04.510Z,38.66
2019-02-14T04:04:30.674Z,37.99
2019-02-14T04:06:56.969Z,37.98
2019-02-14T04:09:23.129Z,38.24
2019-02-14T04:11:49.283Z,37.85
2019-02-14T04:14:15.478Z,36.99
2019-02-14T04:16:41.642Z,36.69
2019-02-14T04:19:07.973Z,36.60
2019-02-14T04:21:34.158Z,35.96
2019-02-14T04:24:00.422Z,36.15
2019-02-14T04:26:26.574Z,35.68
2019-02-14T04:28:52.763Z,35.88
2019-02-14T04:31:18.922Z,35.57
2019-02-14T04:33:45.071Z,34.70
2019-02-14T04:36:11.370Z,35.32
2019-02-14T04:38:37.518Z,35.29
2019-02-14T04:41:03.681Z,35.10
2019-02-14T04:43:29.880Z,34.97
2019-02-14T04:45:56.018Z,34.83
2019-02-14T04:48:22.167Z,34.96
2019-02-14T04:50:48.355Z,35.42
2019-02-14T04:53:14.520Z,35.31
2019-02-14T04:55:40.683Z,34.93
2019-02-14T04:58:06.898Z,34.24
2019-02-14T05:00:33.158Z,35.05
2019-02-14T05:02:59.322Z,35.10
2019-02-14T05:05:25.507Z,35.24
2019-02-14T05:07:51.671Z,33.76
2019-02-14T05:10:17.868Z,33.31
2019-02-14T05:12:44.151Z,35.25
2019-02-14T05:15:10.405Z,34.78
2019-02-14T05:17:36.573Z,33.12
2019-02-14T05:20:05.782Z,33.49
2019-02-14T05:22:31.931Z,32.73
2019-02-14T05:24:58.197Z,32.37
2019-02-14T05:27:24.385Z,32.10
2019-02-14T05:29:50.541Z,32.80
2019-02-14T05:32:16.695Z,31.96
2019-02-14T05:34:42.881Z,32.38
2019-02-14T05:37:09.041Z,31.86
2019-02-14T05:39:35.198Z,30.86
2019-02-14T05:42:01.489Z,30.45
2019-02-14T05:44:27.643Z,30.72
2019-02-14T05:46:53.807Z,30.62
2019-02-14T05:49:20.092Z,30.05
2019-02-14T05:51:46.244Z,32.05
2019-02-14T05:54:12.498Z,31.34
2019-02-14T05:56:38.693Z,30.71
2019-02-14T05:59:04.965Z,30.35
2019-02-14T06:01:31.244Z,29.83
2019-02-14T06:03:57.432Z,29.91
2019-02-14T06:06:23.691Z,29.64
2019-02-14T06:08:49.865Z,30.60
2019-02-14T06:11:16.416Z,31.00
2019-02-14T06:13:42.563Z,30.22
2019-02-14T06:16:08.830Z,29.90
2019-02-14T06:18:35.036Z,30.39
2019-02-14T06:21:01.262Z,30.81
2019-02-14T06:23:27.428Z,30.90
2019-02-14T06:25:53.612Z,31.52
2019-02-14T06:28:19.776Z,30.95
2019-02-14T06:30:45.928Z,31.47
2019-02-14T06:33:12.215Z,31.12
2019-02-14T06:35:38.400Z,31.54
2019-02-14T06:38:04.579Z,31.83
2019-02-14T06:40:30.773Z,30.81
2019-02-14T06:42:56.950Z,31.17
2019-02-14T06:45:23.091Z,31.08
2019-02-14T06:47:49.271Z,30.55
2019-02-14T06:50:15.590Z,30.85
2019-02-14T06:52:41.842Z,31.09
2019-02-14T06:55:08.930Z,31.37
2019-02-14T06:57:35.245Z,31.72
2019-02-14T07:00:01.415Z,30.33
2019-02-14T07:02:27.606Z,30.38
2019-02-14T07:04:53.759Z,29.20
2019-02-14T07:07:20.348Z,28.28
2019-02-14T07:09:46.672Z,28.82
2019-02-14T07:12:12.840Z,28.57
2019-02-14T07:14:39.100Z,28.63
2019-02-14T07:17:05.314Z,28.10
2019-02-14T07:19:31.469Z,28.53
2019-02-14T07:21:57.718Z,28.94
2019-02-14T07:24:24.011Z,28.06
2019-02-14T07:26:50.166Z,28.17
2019-02-14T07:29:16.322Z,27.41
2019-02-14T07:31:42.523Z,27.82
2019-02-14T07:34:08.679Z,28.12
2019-02-14T07:36:34.837Z,27.47
2019-02-14T07:39:01.028Z,29.13
2019-02-14T07:41:28.209Z,29.96
2019-02-14T07:43:54.368Z,27.03
2019-02-14T07:46:22.802Z,29.78
2019-02-14T07:48:48.632Z,28.50
2019-02-14T07:51:14.799Z,28.71
2019-02-14T07:53:41.089Z,28.35
2019-02-14T07:56:07.349Z,27.27
2019-02-14T07:58:33.607Z,27.38
2019-02-14T08:00:59.814Z,30.44
2019-02-14T08:03:25.965Z,28.73
2019-02-14T08:05:52.236Z,27.24
2019-02-14T08:08:18.415Z,28.18
2019-02-14T08:10:44.571Z,26.65
2019-02-14T08:13:10.729Z,26.76
2019-02-14T08:15:36.915Z,25.56
2019-02-14T08:18:03.079Z,25.52
2019-02-14T08:20:29.236Z,28.70
2019-02-14T08:22:55.479Z,27.99
2019-02-14T08:25:21.640Z,28.34
2019-02-14T08:27:47.801Z,29.54
2019-02-14T08:30:18.347Z,29.62
2019-02-14T08:32:44.500Z,28.78
2019-02-14T08:35:10.657Z,28.99
2019-02-14T08:37:45.131Z,30.16
2019-02-14T08:40:14.131Z,28.45
2019-02-14T08:42:40.331Z,28.52
2019-02-14T08:45:09.592Z,27.52
2019-02-14T08:47:35.742Z,27.48
2019-02-14T08:50:02.027Z,28.51
2019-02-14T08:52:28.291Z,28.38
2019-02-14T08:54:54.438Z,29.66
2019-02-14T08:57:20.633Z,29.90
2019-02-14T08:59:46.790Z,30.03
2019-02-14T09:02:13.041Z,30.15
2019-02-14T09:04:39.228Z,29.56
2019-02-14T09:07:05.499Z,29.46
2019-02-14T09:09:31.661Z,29.12
2019-02-14T09:11:57.840Z,29.51
2019-02-14T09:14:24.096Z,29.42
2019-02-14T09:16:50.254Z,27.98
2019-02-14T09:19:16.547Z,28.66
2019-02-14T09:21:42.707Z,27.14
2019-02-14T09:24:08.915Z,27.41
2019-02-14T09:26:35.091Z,26.31
2019-02-14T09:29:01.258Z,27.07
2019-02-14T09:31:27.516Z,26.72
2019-02-14T09:33:53.716Z,29.08
2019-02-14T09:36:19.984Z,28.77
2019-02-14T09:38:46.162Z,30.68
2019-02-14T09:41:12.330Z,28.61
2019-02-14T09:43:38.488Z,27.35
2019-02-14T09:46:04.683Z,26.83
2019-02-14T09:48:30.976Z,28.46
2019-02-14T09:50:57.333Z,27.59
2019-02-14T09:53:23.492Z,26.93
2019-02-14T09:55:49.686Z,26.26
2019-02-14T09:58:15.907Z,27.64
2019-02-14T10:00:42.168Z,29.31
2019-02-14T10:03:08.360Z,27.94
2019-02-14T10:05:34.676Z,27.14
2019-02-14T10:08:00.811Z,26.37
2019-02-14T10:10:27.016Z,28.22
2019-02-14T10:12:53.267Z,27.24
2019-02-14T10:15:19.473Z,27.64
2019-02-14T10:17:45.691Z,26.27
2019-02-14T10:20:15.743Z,27.33
2019-02-14T10:22:41.896Z,27.03
2019-02-14T10:25:08.448Z,27.58
2019-02-14T10:27:34.612Z,28.88
2019-02-14T10:30:00.760Z,27.74
2019-02-14T10:32:27.059Z,28.75
2019-02-14T10:34:53.232Z,27.65
2019-02-14T10:37:19.394Z,28.84
2019-02-14T10:39:45.596Z,28.04
2019-02-14T10:42:11.746Z,27.14
2019-02-14T10:44:37.901Z,28.50
2019-02-14T10:47:04.096Z,29.04
2019-02-14T10:49:30.248Z,29.93
2019-02-14T10:51:56.408Z,28.73
2019-02-14T10:54:22.603Z,31.64
2019-02-14T10:56:48.756Z,31.46
2019-02-14T10:59:14.917Z,30.06
2019-02-14T11:01:41.224Z,30.12
2019-02-14T11:04:07.380Z,28.07
2019-02-14T11:06:33.547Z,27.70
2019-02-14T11:08:59.737Z,29.57
2019-02-14T11:11:25.953Z,28.87
2019-02-14T11:13:52.112Z,27.16
2019-02-14T11:16:18.323Z,27.47
2019-02-14T11:18:44.730Z,26.31
2019-02-14T11:21:10.941Z,26.33
2019-02-14T11:23:37.136Z,26.04
2019-02-14T11:26:03.360Z,26.82
2019-02-14T11:28:29.519Z,26.37
2019-02-14T11:30:55.810Z,26.95
2019-02-14T11:33:22.074Z,27.25
2019-02-14T11:35:48.233Z,26.99
2019-02-14T11:38:14.424Z,26.29
2019-02-14T11:40:40.615Z,27.72
2019-02-14T11:43:06.803Z,27.78
2019-02-14T11:45:33.002Z,26.08
2019-02-14T11:47:59.166Z,28.64
2019-02-14T11:50:25.430Z,28.10
2019-02-14T11:52:51.625Z,26.85
2019-02-14T11:55:17.792Z,28.57
2019-02-14T11:57:43.943Z,29.38
2019-02-14T12:00:15.042Z,30.26
2019-02-14T12:02:41.201Z,31.99
2019-02-14T12:05:07.774Z,31.38
2019-02-14T12:07:33.966Z,28.44
2019-02-14T12:10:00.188Z,28.77
2019-02-14T12:12:27.924Z,26.58
2019-02-14T12:14:54.395Z,27.09
2019-02-14T12:17:20.565Z,25.91
2019-02-14T12:19:48.765Z,27.24
2019-02-14T12:22:14.822Z,26.59
2019-02-14T12:24:40.979Z,27.34
2019-02-14T12:27:07.240Z,28.34
2019-02-14T12:29:33.445Z,26.73
2019-02-14T12:31:59.615Z,27.46
2019-02-14T12:34:25.880Z,26.48
2019-02-14T12:36:52.168Z,27.74
2019-02-14T12:39:18.329Z,28.26
2019-02-14T12:41:44.489Z,28.78
2019-02-14T12:44:10.790Z,29.95
2019-02-14T12:46:38.024Z,30.26
2019-02-14T12:49:04.435Z,27.38
2019-02-14T12:51:33.511Z,27.34
2019-02-14T12:53:59.666Z,26.49
2019-02-14T12:56:25.953Z,26.68
2019-02-14T12:58:52.194Z,26.83
2019-02-14T13:01:18.367Z,24.50
2019-02-14T13:03:44.532Z,24.79
2019-02-14T13:06:10.831Z,27.90
2019-02-14T13:08:37.144Z,26.58
2019-02-14T13:11:03.386Z,25.31
2019-02-14T13:13:29.588Z,24.80
2019-02-14T13:15:55.761Z,26.82
2019-02-14T13:18:22.049Z,26.74
2019-02-14T13:20:48.349Z,26.04
2019-02-14T13:23:14.629Z,27.08
2019-02-14T13:25:40.898Z,28.00
2019-02-14T13:28:07.202Z,27.85
2019-02-14T13:30:33.464Z,28.51
2019-02-14T13:32:59.634Z,28.44
2019-02-14T13:35:25.847Z,28.62
2019-02-14T13:37:52.120Z,28.11
2019-02-14T13:40:18.392Z,27.74
2019-02-14T13:42:44.590Z,27.38
2019-02-14T13:45:16.647Z,26.08
2019-02-14T13:47:42.934Z,27.34
2019-02-14T13:50:10.829Z,25.62
2019-02-14T13:52:37.090Z,26.21
2019-02-14T13:55:05.548Z,25.66
2019-02-14T13:57:31.761Z,26.32
2019-02-14T13:59:58.021Z,26.72
2019-02-14T14:02:24.192Z,27.51
2019-02-14T14:04:50.393Z,27.90
2019-02-14T14:07:16.546Z,28.39
2019-02-14T14:09:42.714Z,29.04
2019-02-14T14:12:09.048Z,27.53
2019-02-14T14:14:35.325Z,27.08
2019-02-14T14:17:01.474Z,27.41
2019-02-14T14:19:30.026Z,28.76
2019-02-14T14:21:55.842Z,29.60
2019-02-14T14:24:21.996Z,29.67
2019-02-14T14:26:48.187Z,28.33
2019-02-14T14:29:14.465Z,29.49
2019-02-14T14:31:40.635Z,28.17
2019-02-14T14:34:07.717Z,29.62
2019-02-14T14:36:33.997Z,29.18
2019-02-14T14:39:00.162Z,29.11
2019-02-14T14:41:26.473Z,29.30
2019-02-14T14:43:54.547Z,30.02
2019-02-14T14:46:22.614Z,29.44
2019-02-14T14:48:48.810Z,28.44
2019-02-14T14:51:15.074Z,28.83
2019-02-14T14:53:41.290Z,28.65
2019-02-14T14:56:07.538Z,28.69
2019-02-14T14:58:33.694Z,28.74
2019-02-14T15:00:59.859Z,29.17
2019-02-14T15:03:26.069Z,29.51
2019-02-14T15:05:52.229Z,29.55
2019-02-14T15:08:18.397Z,29.75
2019-02-14T15:10:44.598Z,29.07
2019-02-14T15:13:10.757Z,28.75
2019-02-14T15:15:36.929Z,28.25
2019-02-14T15:18:03.138Z,28.26
2019-02-14T15:20:29.314Z,27.93
2019-02-14T15:22:56.358Z,28.55
2019-02-14T15:25:22.898Z,29.09
2019-02-14T15:27:49.068Z,29.21
2019-02-14T15:30:15.339Z,29.35
2019-02-14T15:32:41.631Z,30.41
2019-02-14T15:35:07.798Z,31.64
2019-02-14T15:37:33.964Z,34.04
2019-02-14T15:40:08.587Z,33.23
2019-02-14T15:42:28.333Z,33.07
2019-02-14T15:44:54.601Z,33.13
2019-02-14T15:47:20.792Z,33.51
2019-02-14T15:49:49.254Z,32.66
2019-02-14T15:52:15.121Z,32.68
2019-02-14T15:54:41.325Z,33.04
2019-02-14T15:57:07.592Z,34.32
2019-02-14T15:59:34.175Z,35.31
2019-02-14T16:02:00.380Z,37.56
2019-02-14T16:04:27.103Z,37.21
2019-02-14T16:06:54.596Z,39.58
2019-02-14T16:09:20.809Z,39.94
2019-02-14T16:11:46.983Z,39.01
2019-02-14T16:14:13.134Z,38.52
2019-02-14T16:16:39.338Z,38.60
2019-02-14T16:19:05.493Z,38.78
2019-02-14T16:21:31.697Z,38.80
2019-02-14T16:23:58.267Z,38.86
2019-02-14T16:26:24.436Z,38.49
2019-02-14T16:28:51.097Z,38.33
2019-02-14T16:31:17.322Z,39.14
2019-02-14T16:33:43.477Z,37.63
2019-02-14T16:36:09.633Z,37.27
2019-02-14T16:38:37.192Z,35.86
2019-02-14T16:41:03.481Z,36.24
2019-02-14T16:43:29.651Z,36.86
2019-02-14T16:45:55.845Z,37.78
2019-02-14T16:48:22.114Z,37.73
2019-02-14T16:50:48.277Z,37.87
2019-02-14T16:53:14.476Z,37.46
2019-02-14T16:55:40.740Z,36.51
2019-02-14T16:58:06.899Z,35.83
2019-02-14T17:00:33.195Z,35.38
2019-02-14T17:02:59.497Z,36.26
2019-02-14T17:05:25.644Z,36.22
2019-02-14T17:07:51.942Z,35.21
2019-02-14T17:10:18.211Z,35.58
2019-02-14T17:12:44.393Z,36.50
2019-02-14T17:15:10.591Z,36.25
2019-02-14T17:17:36.861Z,36.16
2019-02-14T17:20:07.277Z,35.26
2019-02-14T17:22:33.881Z,35.03
2019-02-14T17:25:00.280Z,34.96
2019-02-14T17:27:26.469Z,36.58
2019-02-14T17:29:52.697Z,37.92
2019-02-14T17:32:18.962Z,38.12
2019-02-14T17:34:45.117Z,37.91
2019-02-14T17:37:11.405Z,37.60
2019-02-14T17:39:37.666Z,37.76
2019-02-14T17:42:03.826Z,37.98
2019-02-14T17:44:30.127Z,36.63
2019-02-14T17:46:56.387Z,37.57
2019-02-14T17:49:22.543Z,37.75
2019-02-14T17:51:48.744Z,37.97
2019-02-14T17:54:15.004Z,39.54
2019-02-14T17:56:41.162Z,38.86
2019-02-14T17:59:07.473Z,39.42
2019-02-14T18:01:33.739Z,41.35
2019-02-14T18:03:59.912Z,42.16
2019-02-14T18:06:26.214Z,42.95
2019-02-14T18:08:52.372Z,43.53
2019-02-14T18:11:18.641Z,42.47
2019-02-14T18:13:44.937Z,41.62
2019-02-14T18:16:11.106Z,39.80
2019-02-14T18:18:37.370Z,38.19
2019-02-14T18:21:03.684Z,37.69
2019-02-14T18:23:29.934Z,37.79
2019-02-14T18:25:56.225Z,37.06
2019-02-14T18:28:22.584Z,37.09
2019-02-14T18:30:48.844Z,36.68
2019-02-14T18:33:15.116Z,37.89
2019-02-14T18:35:41.418Z,38.75
2019-02-14T18:38:07.579Z,38.53
2019-02-14T18:40:33.726Z,38.24
2019-02-14T18:43:00.060Z,38.42
2019-02-14T18:45:26.233Z,39.42
2019-02-14T18:47:52.391Z,39.02
2019-02-14T18:50:18.716Z,39.02
2019-02-14T18:52:44.857Z,38.33
2019-02-14T18:55:11.118Z,40.97
2019-02-14T18:57:41.685Z,38.66
2019-02-14T19:00:16.775Z,38.63
2019-02-14T19:02:43.070Z,37.39
2019-02-14T19:05:10.237Z,37.99
2019-02-14T19:07:36.394Z,38.25
2019-02-14T19:10:06.193Z,39.17
2019-02-14T19:12:32.457Z,38.34
2019-02-14T19:14:58.623Z,38.67
2019-02-14T19:17:24.936Z,38.62
2019-02-14T19:19:51.120Z,38.56
2019-02-14T19:22:17.292Z,37.97
2019-02-14T19:24:43.577Z,38.38
2019-02-14T19:27:09.733Z,40.13
2019-02-14T19:29:36.456Z,39.73
2019-02-14T19:32:02.794Z,40.00
2019-02-14T19:34:28.956Z,39.36
2019-02-14T19:36:55.116Z,39.31
2019-02-14T19:39:21.432Z,41.18
2019-02-14T19:41:47.695Z,40.23
2019-02-14T19:44:13.843Z,41.26
2019-02-14T19:46:40.082Z,40.86
2019-02-14T19:49:06.275Z,40.88
2019-02-14T19:51:32.436Z,41.35
2019-02-14T19:53:58.746Z,41.69
2019-02-14T19:56:24.906Z,40.38
2019-02-14T19:58:51.164Z,40.24
2019-02-14T20:01:17.361Z,40.76
2019-02-14T20:03:43.526Z,43.65
2019-02-14T20:06:09.693Z,40.82
2019-02-14T20:08:35.982Z,40.17
2019-02-14T20:11:02.145Z,39.44
2019-02-14T20:13:28.294Z,39.73
2019-02-14T20:15:54.584Z,39.79
2019-02-14T20:18:20.853Z,39.64
2019-02-14T20:20:47.087Z,39.43
2019-02-14T20:23:13.316Z,39.88
2019-02-14T20:25:39.469Z,38.70
2019-02-14T20:28:05.639Z,40.76
2019-02-14T20:30:31.848Z,39.75
2019-02-14T20:33:04.477Z,40.20
2019-02-14T20:35:26.301Z,40.95
2019-02-14T20:37:52.606Z,40.00
2019-02-14T20:40:18.778Z,39.04
2019-02-14T20:42:45.037Z,39.34
2019-02-14T20:45:14.288Z,40.11
2019-02-14T20:47:40.430Z,38.73
2019-02-14T20:50:11.903Z,40.36
2019-02-14T20:52:38.100Z,41.01
2019-02-14T20:55:07.668Z,40.76
2019-02-14T20:57:33.840Z,39.29
2019-02-14T21:00:00.405Z,38.77
2019-02-14T21:02:26.915Z,39.31
2019-02-14T21:04:53.080Z,41.10
2019-02-14T21:07:19.276Z,39.16
2019-02-14T21:09:45.458Z,39.80
2019-02-14T21:12:11.714Z,39.54
2019-02-14T21:14:38.055Z,39.75
2019-02-14T21:17:04.249Z,39.42
2019-02-14T21:19:30.442Z,39.29
2019-02-14T21:21:56.616Z,38.34
2019-02-14T21:24:22.888Z,38.30
2019-02-14T21:26:49.050Z,38.78
2019-02-14T21:29:15.245Z,38.34
2019-02-14T21:31:41.411Z,38.20
2019-02-14T21:34:07.645Z,37.75
2019-02-14T21:36:33.856Z,37.81
2019-02-14T21:39:00.011Z,37.26
2019-02-14T21:41:26.269Z,38.66
2019-02-14T21:43:52.537Z,37.22
2019-02-14T21:46:18.943Z,37.00
2019-02-14T21:48:45.095Z,37.00
2019-02-14T21:51:11.316Z,38.59
2019-02-14T21:53:37.480Z,37.52
2019-02-14T21:56:03.666Z,36.83
2019-02-14T21:58:29.863Z,36.60
2019-02-14T22:00:56.345Z,36.78
2019-02-14T22:03:22.699Z,36.99
2019-02-14T22:05:49.112Z,37.16
2019-02-14T22:08:15.583Z,36.98
2019-02-14T22:10:44.666Z,36.83
2019-02-14T22:13:10.842Z,36.85
2019-02-14T22:15:37.009Z,37.40
2019-02-14T22:18:13.607Z,36.61
2019-02-14T22:20:39.859Z,35.94
2019-02-14T22:23:06.130Z,37.04
2019-02-14T22:25:32.429Z,36.46
2019-02-14T22:27:58.681Z,36.69
2019-02-14T22:30:24.838Z,37.03
2019-02-14T22:32:51.132Z,37.01
2019-02-14T22:35:17.403Z,37.03
2019-02-14T22:37:43.676Z,37.70
2019-02-14T22:40:11.263Z,39.15
2019-02-14T22:42:46.204Z,37.84
2019-02-14T22:45:10.082Z,37.35
2019-02-14T22:47:36.379Z,37.17
2019-02-14T22:50:04.147Z,36.82
2019-02-14T22:52:30.313Z,36.50
2019-02-14T22:54:56.603Z,36.57
2019-02-14T22:57:22.757Z,36.13
2019-02-14T22:59:48.923Z,37.81
2019-02-14T23:02:15.233Z,38.16
2019-02-14T23:04:41.502Z,37.51
2019-02-14T23:07:07.761Z,37.49
2019-02-14T23:09:34.043Z,37.23
2019-02-14T23:12:00.202Z,38.42
2019-02-14T23:14:26.364Z,37.50
2019-02-14T23:16:52.654Z,37.80
2019-02-14T23:19:18.821Z,38.38
2019-02-14T23:21:45.086Z,37.09
2019-02-14T23:24:11.381Z,37.75
2019-02-14T23:26:37.711Z,39.07
2019-02-14T23:29:03.903Z,39.32
2019-02-14T23:31:30.195Z,39.65
2019-02-14T23:33:56.350Z,40.09
2019-02-14T23:36:22.610Z,39.28
2019-02-14T23:38:48.903Z,39.92
2019-02-14T23:41:15.074Z,40.08
2019-02-14T23:43:41.231Z,39.98
2019-02-14T23:46:07.521Z,39.12
2019-02-14T23:48:33.678Z,38.49
2019-02-14T23:50:59.940Z,38.20
2019-02-14T23:53:26.240Z,39.70
2019-02-14T23:55:52.508Z,38.10
2019-02-14T23:58:18.674Z,38.54
